createdAt,value
2018-08-13T00:00:55.237Z,92.90
2018-08-13T00:03:23.322Z,92.90
2018-08-13T00:05:51.366Z,92.90
2018-08-13T00:08:19.461Z,93.20
2018-08-13T00:10:47.631Z,92.90
2018-08-13T00:13:15.766Z,92.90
2018-08-13T00:15:43.906Z,92.90
2018-08-13T00:18:12.622Z,93.00
2018-08-13T00:20:40.738Z,93.10
2018-08-13T00:23:09.246Z,93.10
2018-08-13T00:25:37.430Z,93.10
2018-08-13T00:28:07.059Z,93.10
2018-08-13T00:30:35.155Z,93.10
2018-08-13T00:33:03.307Z,93.10
2018-08-13T00:35:31.362Z,93.10
2018-08-13T00:37:59.450Z,93.10
2018-08-13T00:40:27.889Z,93.10
2018-08-13T00:42:55.955Z,93.10
2018-08-13T00:45:24.086Z,93.10
2018-08-13T00:47:52.171Z,93.20
2018-08-13T00:50:20.255Z,93.10
2018-08-13T00:52:48.349Z,93.10
2018-08-13T00:55:16.489Z,93.30
2018-08-13T00:57:44.570Z,93.10
2018-08-13T01:00:17.994Z,93.20
2018-08-13T01:02:46.650Z,93.30
2018-08-13T01:05:15.697Z,93.20
2018-08-13T01:07:43.787Z,93.20
2018-08-13T01:10:14.347Z,93.20
2018-08-13T01:12:42.737Z,93.20
2018-08-13T01:15:12.565Z,93.30
2018-08-13T01:17:42.247Z,93.30
2018-08-13T01:20:11.790Z,93.30
2018-08-13T01:22:39.984Z,93.30
2018-08-13T01:25:10.723Z,93.30
2018-08-13T01:27:39.120Z,93.30
2018-08-13T01:30:07.962Z,93.30
2018-08-13T01:32:36.046Z,93.20
2018-08-13T01:35:04.364Z,93.30
2018-08-13T01:37:32.546Z,93.30
2018-08-13T01:40:00.622Z,93.40
2018-08-13T01:42:28.738Z,93.40
2018-08-13T01:44:56.859Z,93.40
2018-08-13T01:47:24.949Z,93.30
2018-08-13T01:49:53.059Z,93.30
2018-08-13T01:52:21.224Z,93.40
2018-08-13T01:54:49.302Z,93.30
2018-08-13T01:57:17.423Z,93.40
2018-08-13T01:59:45.522Z,93.30
2018-08-13T02:02:14.173Z,93.30
2018-08-13T02:04:42.640Z,93.30
2018-08-13T02:07:10.770Z,93.30
2018-08-13T02:09:41.847Z,93.30
2018-08-13T02:12:10.826Z,93.30
2018-08-13T02:14:39.003Z,93.40
2018-08-13T02:17:07.150Z,93.40
2018-08-13T02:19:35.264Z,93.40
2018-08-13T02:22:03.370Z,93.40
2018-08-13T02:24:31.509Z,93.40
2018-08-13T02:26:59.578Z,93.50
2018-08-13T02:29:27.937Z,93.50
2018-08-13T02:31:56.555Z,93.50
2018-08-13T02:34:24.683Z,93.50
2018-08-13T02:36:52.763Z,93.50
2018-08-13T02:39:20.955Z,93.50
2018-08-13T02:41:48.942Z,93.50
2018-08-13T02:44:17.050Z,93.50
2018-08-13T02:46:45.114Z,93.50
2018-08-13T02:49:13.200Z,93.60
2018-08-13T02:51:41.314Z,93.60
2018-08-13T02:54:09.377Z,93.50
2018-08-13T02:56:37.491Z,93.50
2018-08-13T02:59:05.554Z,93.50
2018-08-13T03:01:33.630Z,93.60
2018-08-13T03:04:01.760Z,93.50
2018-08-13T03:06:29.863Z,93.60
2018-08-13T03:08:57.938Z,93.60
2018-08-13T03:11:26.072Z,93.60
2018-08-13T03:13:54.161Z,93.50
2018-08-13T03:16:22.608Z,93.50
2018-08-13T03:18:50.740Z,93.50
2018-08-13T03:21:18.836Z,93.50
2018-08-13T03:23:46.920Z,93.50
2018-08-13T03:26:15.050Z,93.90
2018-08-13T03:28:43.122Z,93.60
2018-08-13T03:31:11.225Z,93.50
2018-08-13T03:33:39.338Z,93.60
2018-08-13T03:36:07.745Z,93.60
2018-08-13T03:38:35.809Z,93.60
2018-08-13T03:41:03.913Z,93.60
2018-08-13T03:43:32.022Z,93.70
2018-08-13T03:46:00.083Z,93.60
2018-08-13T03:48:28.210Z,93.50
2018-08-13T03:50:56.347Z,93.60
2018-08-13T03:53:24.423Z,93.60
2018-08-13T03:55:52.522Z,93.50
2018-08-13T03:58:20.659Z,93.90
2018-08-13T04:00:48.746Z,93.60
2018-08-13T04:03:16.858Z,93.60
2018-08-13T04:05:44.983Z,93.60
2018-08-13T04:08:13.078Z,93.60
2018-08-13T04:10:41.236Z,93.50
2018-08-13T04:13:09.364Z,93.50
2018-08-13T04:15:37.545Z,93.60
2018-08-13T04:18:07.117Z,93.50
2018-08-13T04:20:35.458Z,93.60
2018-08-13T04:23:03.556Z,93.60
2018-08-13T04:25:31.635Z,93.60
2018-08-13T04:27:59.718Z,93.60
2018-08-13T04:30:27.785Z,93.60
2018-08-13T04:32:55.952Z,93.60
2018-08-13T04:35:24.042Z,93.60
2018-08-13T04:37:52.147Z,92.80
2018-08-13T04:40:20.218Z,93.60
2018-08-13T04:42:48.395Z,93.60
2018-08-13T04:45:16.464Z,93.60
2018-08-13T04:47:49.837Z,93.60
2018-08-13T04:50:17.970Z,93.60
2018-08-13T04:52:46.053Z,93.60
2018-08-13T04:55:14.178Z,93.90
2018-08-13T04:57:42.257Z,93.60
2018-08-13T05:00:10.362Z,93.70
2018-08-13T05:02:38.874Z,93.60
2018-08-13T05:05:08.078Z,93.60
2018-08-13T05:07:36.142Z,93.60
2018-08-13T05:10:05.285Z,93.60
2018-08-13T05:12:33.410Z,93.60
2018-08-13T05:15:01.603Z,93.60
2018-08-13T05:17:29.721Z,93.50
2018-08-13T05:19:57.810Z,93.50
2018-08-13T05:22:25.900Z,93.50
2018-08-13T05:24:54.005Z,93.50
2018-08-13T05:27:22.201Z,93.50
2018-08-13T05:29:50.282Z,93.50
2018-08-13T05:32:18.455Z,93.50
2018-08-13T05:34:46.606Z,93.50
2018-08-13T05:37:14.708Z,93.50
2018-08-13T05:39:42.865Z,93.40
2018-08-13T05:42:11.070Z,93.40
2018-08-13T05:44:39.308Z,93.40
2018-08-13T05:47:07.476Z,93.40
2018-08-13T05:49:35.530Z,93.40
2018-08-13T05:52:03.654Z,93.40
2018-08-13T05:54:31.747Z,93.70
2018-08-13T05:56:59.817Z,93.40
2018-08-13T05:59:27.902Z,93.40
2018-08-13T06:01:55.969Z,93.40
2018-08-13T06:04:24.083Z,93.40
2018-08-13T06:06:52.151Z,93.40
2018-08-13T06:09:20.269Z,93.40
2018-08-13T06:11:48.380Z,93.40
2018-08-13T06:14:16.449Z,93.40
2018-08-13T06:16:44.509Z,93.40
2018-08-13T06:19:12.610Z,93.70
2018-08-13T06:21:40.730Z,93.40
2018-08-13T06:24:08.873Z,93.40
2018-08-13T06:26:37.042Z,93.50
2018-08-13T06:29:05.619Z,93.50
2018-08-13T06:31:33.850Z,93.60
2018-08-13T06:34:02.019Z,93.60
2018-08-13T06:36:30.118Z,93.60
2018-08-13T06:38:58.210Z,93.60
2018-08-13T06:41:26.306Z,93.60
2018-08-13T06:43:54.406Z,93.60
2018-08-13T06:46:22.522Z,93.60
2018-08-13T06:48:50.695Z,93.60
2018-08-13T06:51:18.811Z,93.60
2018-08-13T06:53:46.998Z,93.60
2018-08-13T06:56:15.080Z,93.70
2018-08-13T06:58:43.144Z,93.70
2018-08-13T07:01:11.248Z,93.70
2018-08-13T07:03:39.334Z,93.70
2018-08-13T07:06:07.495Z,93.70
2018-08-13T07:08:35.580Z,93.60
2018-08-13T07:11:03.703Z,93.50
2018-08-13T07:13:31.781Z,93.50
2018-08-13T07:15:59.982Z,93.50
2018-08-13T07:18:28.070Z,93.40
2018-08-13T07:20:56.225Z,93.40
2018-08-13T07:23:24.354Z,93.40
2018-08-13T07:25:52.446Z,93.40
2018-08-13T07:28:20.522Z,93.30
2018-08-13T07:30:49.682Z,93.30
2018-08-13T07:33:17.830Z,93.30
2018-08-13T07:35:46.015Z,93.30
2018-08-13T07:38:14.118Z,93.20
2018-08-13T07:40:42.227Z,93.40
2018-08-13T07:43:10.346Z,93.30
2018-08-13T07:45:38.508Z,93.30
2018-08-13T07:48:06.574Z,93.30
2018-08-13T07:50:34.667Z,93.20
2018-08-13T07:53:02.798Z,93.30
2018-08-13T07:55:30.954Z,93.30
2018-08-13T07:57:59.027Z,93.30
2018-08-13T08:00:27.166Z,93.30
2018-08-13T08:02:55.309Z,93.30
2018-08-13T08:05:23.498Z,93.20
2018-08-13T08:07:51.634Z,93.30
2018-08-13T08:10:19.782Z,93.20
2018-08-13T08:12:47.953Z,93.20
2018-08-13T08:15:17.405Z,93.30
2018-08-13T08:17:45.617Z,93.60
2018-08-13T08:20:13.723Z,93.30
2018-08-13T08:22:41.939Z,93.40
2018-08-13T08:25:14.678Z,93.40
2018-08-13T08:27:43.236Z,93.30
2018-08-13T08:30:11.826Z,93.40
2018-08-13T08:32:40.082Z,93.40
2018-08-13T08:35:10.584Z,93.40
2018-08-13T08:37:38.906Z,93.40
2018-08-13T08:40:08.822Z,93.40
2018-08-13T08:42:37.002Z,93.40
2018-08-13T08:45:08.007Z,93.50
2018-08-13T08:47:36.194Z,93.40
2018-08-13T08:50:04.709Z,93.40
2018-08-13T08:52:32.825Z,93.40
2018-08-13T08:55:00.903Z,93.40
2018-08-13T08:57:29.101Z,93.40
2018-08-13T08:59:57.213Z,93.40
2018-08-13T09:02:25.291Z,93.40
2018-08-13T09:04:53.371Z,93.50
2018-08-13T09:07:21.558Z,93.50
2018-08-13T09:09:49.643Z,93.50
2018-08-13T09:12:17.734Z,93.50
2018-08-13T09:14:45.834Z,93.50
2018-08-13T09:17:13.893Z,93.50
2018-08-13T09:19:53.327Z,93.50
2018-08-13T09:24:35.307Z,93.50
2018-08-13T09:27:14.817Z,93.50
2018-08-13T09:29:54.348Z,93.50
2018-08-13T09:32:34.645Z,93.40
2018-08-13T09:35:37.306Z,93.30
2018-08-13T09:38:05.373Z,93.30
2018-08-13T09:40:33.918Z,93.30
2018-08-13T09:43:02.017Z,93.20
2018-08-13T09:45:30.171Z,93.30
2018-08-13T09:47:58.374Z,93.20
2018-08-13T09:50:26.467Z,93.20
2018-08-13T09:52:54.573Z,93.20
2018-08-13T09:55:22.699Z,93.20
2018-08-13T09:57:51.302Z,93.20
2018-08-13T10:00:25.842Z,93.30
2018-08-13T10:02:53.984Z,93.20
2018-08-13T10:05:22.085Z,93.20
2018-08-13T10:07:50.175Z,93.20
2018-08-13T10:10:18.405Z,93.20
2018-08-13T10:12:47.310Z,93.10
2018-08-13T10:15:15.522Z,93.10
2018-08-13T10:17:43.653Z,93.20
2018-08-13T10:20:16.162Z,93.20
2018-08-13T10:22:44.409Z,93.50
2018-08-13T10:25:12.883Z,93.40
2018-08-13T10:27:41.276Z,93.30
2018-08-13T10:30:10.858Z,93.30
2018-08-13T10:32:39.554Z,93.50
2018-08-13T10:35:08.122Z,93.70
2018-08-13T10:37:36.411Z,93.80
2018-08-13T10:40:06.847Z,93.60
2018-08-13T10:42:35.226Z,93.60
2018-08-13T10:45:03.348Z,93.90
2018-08-13T10:47:31.482Z,94.00
2018-08-13T10:49:59.578Z,93.60
2018-08-13T10:52:27.658Z,93.60
2018-08-13T10:54:55.743Z,93.60
2018-08-13T10:57:24.270Z,93.50
2018-08-13T10:59:52.414Z,93.50
2018-08-13T11:02:20.562Z,93.50
2018-08-13T11:04:48.626Z,93.60
2018-08-13T11:07:16.726Z,93.60
2018-08-13T11:09:44.854Z,93.60
2018-08-13T11:12:13.022Z,93.50
2018-08-13T11:14:41.097Z,93.40
2018-08-13T11:17:09.200Z,93.40
2018-08-13T11:19:37.297Z,93.40
2018-08-13T11:22:05.538Z,93.50
2018-08-13T11:24:33.631Z,93.50
2018-08-13T11:27:01.712Z,93.70
2018-08-13T11:29:29.886Z,93.60
2018-08-13T11:31:58.000Z,93.60
2018-08-13T11:34:26.152Z,93.60
2018-08-13T11:36:54.247Z,93.50
2018-08-13T11:39:22.415Z,93.60
2018-08-13T11:41:50.472Z,93.60
2018-08-13T11:44:18.580Z,93.50
2018-08-13T11:46:46.670Z,93.40
2018-08-13T11:49:14.802Z,93.50
2018-08-13T11:51:42.830Z,93.60
2018-08-13T11:54:10.926Z,93.60
2018-08-13T11:56:39.103Z,93.50
2018-08-13T11:59:07.210Z,93.80
2018-08-13T12:01:35.284Z,93.80
2018-08-13T12:04:03.397Z,93.80
2018-08-13T12:06:31.454Z,93.70
2018-08-13T12:08:59.522Z,93.90
2018-08-13T12:11:27.566Z,93.80
2018-08-13T12:13:55.675Z,93.90
2018-08-13T12:16:23.738Z,93.90
2018-08-13T12:18:52.142Z,93.90
2018-08-13T12:21:20.210Z,93.70
2018-08-13T12:23:48.258Z,93.70
2018-08-13T12:26:16.381Z,93.70
2018-08-13T12:28:44.402Z,93.60
2018-08-13T12:31:12.478Z,93.60
2018-08-13T12:33:40.595Z,93.60
2018-08-13T12:36:08.667Z,93.80
2018-08-13T12:38:36.743Z,93.90
2018-08-13T12:41:05.065Z,93.90
2018-08-13T12:43:33.183Z,93.90
2018-08-13T12:46:01.368Z,93.90
2018-08-13T12:48:29.454Z,93.90
2018-08-13T12:50:57.583Z,93.90
2018-08-13T12:53:25.670Z,93.90
2018-08-13T12:55:53.740Z,93.90
2018-08-13T12:58:21.830Z,93.80
2018-08-13T13:00:55.418Z,94.20
2018-08-13T13:03:23.491Z,93.90
2018-08-13T13:05:51.590Z,93.90
2018-08-13T13:08:19.651Z,93.80
2018-08-13T13:10:47.778Z,93.90
2018-08-13T13:13:15.971Z,93.90
2018-08-13T13:15:44.068Z,94.00
2018-08-13T13:18:12.186Z,94.00
2018-08-13T13:20:40.301Z,94.00
2018-08-13T13:23:08.446Z,94.00
2018-08-13T13:25:36.546Z,94.10
2018-08-13T13:28:04.653Z,94.10
2018-08-13T13:30:32.763Z,94.20
2018-08-13T13:33:00.966Z,94.20
2018-08-13T13:35:29.102Z,94.20
2018-08-13T13:37:57.170Z,94.30
2018-08-13T13:40:25.282Z,94.40
2018-08-13T13:42:53.366Z,94.20
2018-08-13T13:45:21.470Z,94.20
2018-08-13T13:47:49.540Z,94.30
2018-08-13T13:50:18.747Z,94.30
2018-08-13T13:52:46.830Z,94.20
2018-08-13T13:55:15.397Z,94.20
2018-08-13T13:57:43.558Z,94.20
2018-08-13T14:00:16.000Z,94.20
2018-08-13T14:02:44.471Z,94.20
2018-08-13T14:05:12.740Z,94.30
2018-08-13T14:07:40.916Z,94.20
2018-08-13T14:10:18.999Z,94.30
2018-08-13T14:12:47.098Z,94.30
2018-08-13T14:15:16.689Z,94.30
2018-08-13T14:17:44.763Z,94.30
2018-08-13T14:20:12.858Z,94.30
2018-08-13T14:22:40.969Z,94.30
2018-08-13T14:25:11.042Z,94.40
2018-08-13T14:27:39.254Z,94.30
2018-08-13T14:30:14.512Z,94.30
2018-08-13T14:32:42.622Z,94.30
2018-08-13T14:35:10.746Z,94.30
2018-08-13T14:37:39.170Z,94.30
2018-08-13T14:40:08.803Z,94.30
2018-08-13T14:42:36.870Z,94.20
2018-08-13T14:45:05.940Z,94.20
2018-08-13T14:47:34.087Z,94.20
2018-08-13T14:50:02.226Z,94.20
2018-08-13T14:52:30.332Z,94.20
2018-08-13T14:54:58.415Z,94.20
2018-08-13T14:57:27.007Z,94.10
2018-08-13T14:59:55.118Z,94.10
2018-08-13T15:02:23.251Z,94.10
2018-08-13T15:04:51.428Z,94.10
2018-08-13T15:07:19.505Z,94.10
2018-08-13T15:09:47.643Z,94.20
2018-08-13T15:12:15.742Z,94.10
2018-08-13T15:14:43.897Z,94.10
2018-08-13T15:17:12.038Z,94.10
2018-08-13T15:19:40.118Z,94.10
2018-08-13T15:22:08.534Z,94.20
2018-08-13T15:24:37.110Z,94.30
2018-08-13T15:27:05.484Z,94.30
2018-08-13T15:29:33.536Z,94.30
2018-08-13T15:32:01.634Z,94.30
2018-08-13T15:34:29.702Z,94.30
2018-08-13T15:36:57.774Z,94.40
2018-08-13T15:39:25.887Z,94.50
2018-08-13T15:41:54.029Z,94.40
2018-08-13T15:44:22.130Z,94.40
2018-08-13T15:46:50.221Z,94.40
2018-08-13T15:49:18.488Z,94.30
2018-08-13T15:51:46.565Z,94.20
2018-08-13T15:54:14.679Z,94.40
2018-08-13T15:56:42.782Z,94.40
2018-08-13T15:59:10.874Z,94.60
2018-08-13T16:01:39.102Z,94.40
2018-08-13T16:04:07.182Z,94.40
2018-08-13T16:06:35.273Z,94.40
2018-08-13T16:09:04.299Z,94.50
2018-08-13T16:11:32.426Z,94.40
2018-08-13T16:14:00.593Z,94.30
2018-08-13T16:16:28.696Z,94.40
2018-08-13T16:18:56.782Z,94.50
2018-08-13T16:21:24.895Z,94.60
2018-08-13T16:23:53.010Z,94.60
2018-08-13T16:26:21.131Z,94.60
2018-08-13T16:28:49.239Z,94.60
2018-08-13T16:31:17.350Z,94.70
2018-08-13T16:33:45.465Z,94.70
2018-08-13T16:36:13.619Z,94.80
2018-08-13T16:38:41.727Z,94.80
2018-08-13T16:41:09.796Z,94.90
2018-08-13T16:43:37.915Z,95.00
2018-08-13T16:46:06.006Z,95.00
2018-08-13T16:48:34.118Z,94.90
2018-08-13T16:51:02.200Z,95.00
2018-08-13T16:53:30.317Z,95.00
2018-08-13T16:55:58.429Z,95.00
2018-08-13T16:58:26.546Z,95.00
2018-08-13T17:00:54.623Z,95.00
2018-08-13T17:03:22.750Z,94.90
2018-08-13T17:05:50.846Z,94.90
2018-08-13T17:08:18.966Z,94.90
2018-08-13T17:10:47.098Z,95.00
2018-08-13T17:13:15.182Z,95.00
2018-08-13T17:15:43.294Z,95.00
2018-08-13T17:18:11.379Z,95.10
2018-08-13T17:20:40.906Z,95.10
2018-08-13T17:23:09.077Z,95.10
2018-08-13T17:25:37.231Z,95.00
2018-08-13T17:28:05.722Z,95.10
2018-08-13T17:30:33.779Z,95.10
2018-08-13T17:33:02.000Z,95.00
2018-08-13T17:35:32.474Z,95.00
2018-08-13T17:38:01.442Z,95.00
2018-08-13T17:40:29.993Z,95.00
2018-08-13T17:42:58.276Z,95.00
2018-08-13T17:45:26.482Z,95.00
2018-08-13T17:47:54.618Z,94.90
2018-08-13T17:50:22.918Z,94.90
2018-08-13T17:52:51.054Z,94.90
2018-08-13T17:55:19.322Z,94.90
2018-08-13T17:57:47.475Z,94.90
2018-08-13T18:00:19.738Z,94.90
2018-08-13T18:02:47.904Z,95.00
2018-08-13T18:05:18.178Z,95.10
2018-08-13T18:07:46.666Z,95.00
2018-08-13T18:10:20.615Z,95.10
2018-08-13T18:12:48.694Z,95.20
2018-08-13T18:15:17.171Z,95.30
2018-08-13T18:17:45.755Z,95.30
2018-08-13T18:20:13.861Z,95.30
2018-08-13T18:22:42.118Z,95.30
2018-08-13T18:25:11.442Z,95.30
2018-08-13T18:27:40.667Z,95.30
2018-08-13T18:30:11.485Z,95.30
2018-08-13T18:32:39.582Z,95.40
2018-08-13T18:35:07.801Z,95.40
2018-08-13T18:37:35.879Z,95.40
2018-08-13T18:40:05.794Z,95.40
2018-08-13T18:42:33.875Z,95.40
2018-08-13T18:45:01.982Z,95.40
2018-08-13T18:47:30.960Z,95.40
2018-08-13T18:49:59.059Z,95.40
2018-08-13T18:52:27.147Z,95.40
2018-08-13T18:54:55.265Z,95.40
2018-08-13T18:57:23.334Z,95.50
2018-08-13T18:59:52.562Z,95.50
2018-08-13T19:02:20.638Z,95.60
2018-08-13T19:04:48.814Z,96.00
2018-08-13T19:07:16.854Z,95.70
2018-08-13T19:09:44.939Z,95.80
2018-08-13T19:12:13.064Z,95.80
2018-08-13T19:14:41.132Z,95.80
2018-08-13T19:17:09.206Z,95.80
2018-08-13T19:19:37.306Z,95.80
2018-08-13T19:22:05.636Z,95.80
2018-08-13T19:24:33.715Z,95.80
2018-08-13T19:27:01.779Z,95.80
2018-08-13T19:29:29.846Z,95.80
2018-08-13T19:31:57.970Z,95.80
2018-08-13T19:34:26.074Z,95.80
2018-08-13T19:36:54.162Z,95.80
2018-08-13T19:39:22.286Z,95.90
2018-08-13T19:41:50.395Z,95.90
2018-08-13T19:44:18.522Z,95.90
2018-08-13T19:46:46.618Z,95.90
2018-08-13T19:49:14.834Z,95.90
2018-08-13T19:51:42.919Z,96.00
2018-08-13T19:54:11.031Z,96.00
2018-08-13T19:56:39.149Z,96.00
2018-08-13T19:59:07.337Z,96.10
2018-08-13T20:01:35.412Z,96.10
2018-08-13T20:04:03.523Z,96.20
2018-08-13T20:06:31.622Z,96.30
2018-08-13T20:08:59.757Z,96.30
2018-08-13T20:14:05.106Z,96.30
2018-08-13T20:16:33.161Z,96.30
2018-08-13T20:19:01.557Z,96.30
2018-08-13T20:21:29.630Z,96.40
2018-08-13T20:23:57.796Z,96.40
2018-08-13T20:26:25.972Z,96.50
2018-08-13T20:28:54.114Z,96.80
2018-08-13T20:31:22.329Z,96.50
2018-08-13T20:33:50.466Z,96.50
2018-08-13T20:36:18.574Z,96.60
2018-08-13T20:38:46.762Z,96.50
2018-08-13T20:41:14.848Z,96.60
2018-08-13T20:43:42.965Z,96.60
2018-08-13T20:46:11.086Z,96.60
2018-08-13T20:48:39.214Z,96.60
2018-08-13T20:51:07.346Z,96.60
2018-08-13T20:53:35.442Z,96.70
2018-08-13T20:56:03.554Z,96.70
2018-08-13T20:58:31.626Z,96.70
2018-08-13T21:00:59.704Z,96.70
2018-08-13T21:03:27.850Z,96.70
2018-08-13T21:05:55.910Z,96.80
2018-08-13T21:08:24.011Z,96.80
2018-08-13T21:10:52.087Z,96.80
2018-08-13T21:13:20.194Z,96.80
2018-08-13T21:15:48.285Z,96.80
2018-08-13T21:18:16.365Z,96.70
2018-08-13T21:20:44.426Z,96.80
2018-08-13T21:23:12.591Z,96.70
2018-08-13T21:25:40.642Z,96.80
2018-08-13T21:28:08.870Z,96.80
2018-08-13T21:30:36.982Z,96.80
2018-08-13T21:33:08.109Z,96.80
2018-08-13T21:35:37.588Z,96.80
2018-08-13T21:38:05.718Z,96.70
2018-08-13T21:40:33.930Z,96.80
2018-08-13T21:43:01.994Z,96.80
2018-08-13T21:45:30.142Z,96.80
2018-08-13T21:47:58.286Z,96.80
2018-08-13T21:50:26.448Z,96.80
2018-08-13T21:52:54.506Z,96.80
2018-08-13T21:55:22.576Z,96.80
2018-08-13T21:57:50.666Z,96.70
2018-08-13T22:00:25.405Z,96.70
2018-08-13T22:02:53.946Z,96.80
2018-08-13T22:05:22.028Z,96.80
2018-08-13T22:07:50.094Z,96.80
2018-08-13T22:10:18.194Z,96.80
2018-08-13T22:12:46.270Z,96.70
2018-08-13T22:15:24.457Z,96.80
2018-08-13T22:17:52.790Z,97.10
2018-08-13T22:20:20.874Z,96.70
2018-08-13T22:22:49.150Z,96.70
2018-08-13T22:25:20.810Z,96.70
2018-08-13T22:27:48.912Z,96.70
2018-08-13T22:30:17.016Z,96.70
2018-08-13T22:32:45.094Z,96.70
2018-08-13T22:35:13.182Z,96.70
2018-08-13T22:37:42.161Z,96.70
2018-08-13T22:40:15.613Z,96.70
2018-08-13T22:42:44.519Z,96.70
2018-08-13T22:45:14.842Z,96.70
2018-08-13T22:47:42.900Z,96.70
2018-08-13T22:50:11.094Z,96.70
2018-08-13T22:52:39.223Z,96.70
2018-08-13T22:55:09.218Z,96.70
2018-08-13T22:57:37.390Z,96.70
2018-08-13T23:00:09.416Z,96.70
2018-08-13T23:02:37.502Z,96.70
2018-08-13T23:05:07.890Z,96.70
2018-08-13T23:07:35.998Z,96.70
2018-08-13T23:10:04.598Z,96.70
2018-08-13T23:12:32.719Z,96.70
2018-08-13T23:15:00.870Z,96.70
2018-08-13T23:17:29.059Z,96.70
2018-08-13T23:19:57.150Z,96.70
2018-08-13T23:22:45.112Z,96.70
2018-08-13T23:25:13.215Z,96.70
2018-08-13T23:27:41.756Z,96.70
2018-08-13T23:30:09.906Z,96.70
2018-08-13T23:32:37.983Z,96.70
2018-08-13T23:35:06.216Z,96.70
2018-08-13T23:37:34.370Z,96.80
2018-08-13T23:40:02.506Z,96.70
2018-08-13T23:42:30.682Z,96.70
2018-08-13T23:44:58.795Z,96.70
2018-08-13T23:47:26.930Z,96.80
2018-08-13T23:49:55.111Z,96.70
2018-08-13T23:52:23.278Z,96.70
2018-08-13T23:54:51.553Z,96.70
2018-08-13T23:57:19.668Z,96.70
2018-08-13T23:59:47.874Z,96.70
